Main page
METAR-TAF:

METAR-TAF

Airports :

Begumpet Airport

Hyderabad, India

latitude: 17-27N, longitude: 078-28E, elevation: 530 m

Current weather observation

The report was made 4 hours and 43 minutes ago, at 16:00 UTC
Wind 3 kt from the East/Southeast
Temperature 24°C
Humidity 69%
Pressure 1016 hPa
Visibility: 4000 m
Few clouds at a height of 2000 ft
Scattered clouds at a height of 10000 ft
haze

METAR: VOHY 011600Z 11003KT 4000 HZ FEW020 SCT100 24/18 Q1016 NOSIG

Time: 02:13 (20:43 UTC)

Forecast

The report was made 9 hours and 43 minutes ago, at 11:00 UTC
Forecast valid from 01 at 12 UTC to 01 at 21 UTC
Wind 6 kt from the East/Northeast
Visibility: 5000 m
haze

TAF: VOHY 011100Z 0112/0121 07006KT 5000 HZ NSC

Weather observations and forecasts of more than 4000 airports (METAR and TAF reports).

The available stations are represented by yellow and red dots on the map.

Hover mouse over dot to see the name of the station.

Then click to see weather observations and forecasts.

To change the map : click on the green buttons with a black cross to zoom in, on the green button with a dash to zoom out, or on the green arrows for adjacent maps.


METAR-TAF: